createdAt,value
2018-11-02T00:00:36.861Z,1009.81
2018-11-02T00:01:46.854Z,1009.87
2018-11-02T00:02:56.823Z,1009.92
2018-11-02T00:04:06.560Z,1009.93
2018-11-02T00:05:16.306Z,1010.03
2018-11-02T00:06:26.214Z,1010.11
2018-11-02T00:07:36.817Z,1010.18
2018-11-02T00:08:46.597Z,1010.24
2018-11-02T00:09:56.858Z,1010.35
2018-11-02T00:11:06.562Z,1010.32
2018-11-02T00:12:16.672Z,1010.31
2018-11-02T00:13:26.949Z,1010.38
2018-11-02T00:14:36.929Z,1010.42
2018-11-02T00:15:46.952Z,1010.44
2018-11-02T00:16:56.927Z,1010.38
2018-11-02T00:18:06.388Z,1010.36
2018-11-02T00:19:16.369Z,1010.31
2018-11-02T00:20:26.338Z,1010.25
2018-11-02T00:21:36.324Z,1010.16
2018-11-02T00:22:46.317Z,1010.15
2018-11-02T00:23:56.388Z,1010.1
2018-11-02T00:25:06.098Z,1010.05
2018-11-02T00:26:16.072Z,1010.04
2018-11-02T00:27:26.042Z,1010.06
2018-11-02T00:28:36.142Z,1010.06
2018-11-02T00:29:46.471Z,1010.07
2018-11-02T00:30:56.921Z,1010.11
2018-11-02T00:32:06.990Z,1010.09
2018-11-02T00:33:16.415Z,1010.14
2018-11-02T00:34:25.604Z,1010.13
2018-11-02T00:35:35.587Z,1010.15
2018-11-02T00:36:45.544Z,1010.14
2018-11-02T00:37:55.246Z,1010.14
2018-11-02T00:39:04.953Z,1010.16
2018-11-02T00:40:14.659Z,1010.22
2018-11-02T00:41:24.124Z,1010.26
2018-11-02T00:42:33.831Z,1010.23
2018-11-02T00:43:43.556Z,1010.19
2018-11-02T00:44:53.758Z,1010.1
2018-11-02T00:46:03.484Z,1010.13
2018-11-02T00:47:13.467Z,1010.08
2018-11-02T00:48:23.166Z,1010.04
2018-11-02T00:49:33.162Z,1010.05
2018-11-02T00:50:43.153Z,1010
2018-11-02T00:51:53.770Z,1010.02
2018-11-02T00:53:03.292Z,1010.03
2018-11-02T00:54:13.316Z,1010.05
2018-11-02T00:55:22.252Z,1010.02
2018-11-02T00:56:31.717Z,1010.08
2018-11-02T00:57:41.477Z,1010.09
2018-11-02T00:58:51.472Z,1010.09
2018-11-02T01:00:01.449Z,1010.16
2018-11-02T01:01:11.160Z,1010.16
2018-11-02T01:02:20.863Z,1010.19
2018-11-02T01:03:30.598Z,1010.21
2018-11-02T01:04:40.597Z,1010.29
2018-11-02T01:05:50.667Z,1010.31
2018-11-02T01:07:00.125Z,1010.32
2018-11-02T01:08:09.847Z,1010.4
2018-11-02T01:09:19.606Z,1010.27
2018-11-02T01:10:29.324Z,1010.28
2018-11-02T01:11:39.302Z,1010.27
2018-11-02T01:12:49.265Z,1010.24
2018-11-02T01:13:59.231Z,1010.32
2018-11-02T01:15:09.002Z,1010.34
2018-11-02T01:16:19.524Z,1010.28
2018-11-02T01:17:29.600Z,1010.29
2018-11-02T01:18:39.394Z,1010.29
2018-11-02T01:19:49.310Z,1010.22
2018-11-02T01:20:58.796Z,1010.22
2018-11-02T01:22:08.254Z,1010.26
2018-11-02T01:23:17.971Z,1010.27
2018-11-02T01:24:27.521Z,1010.17
2018-11-02T01:25:37.232Z,1010.11
2018-11-02T01:26:46.958Z,1010.16
2018-11-02T01:27:56.438Z,1010.19
2018-11-02T01:29:05.873Z,1010.29
2018-11-02T01:30:15.579Z,1010.49
2018-11-02T01:31:25.018Z,1010.58
2018-11-02T01:32:34.560Z,1010.64
2018-11-02T01:33:44.000Z,1010.65
2018-11-02T01:34:53.441Z,1010.75
2018-11-02T01:36:03.213Z,1010.69
2018-11-02T01:37:13.399Z,1010.72
2018-11-02T01:38:23.118Z,1010.68
2018-11-02T01:39:33.109Z,1010.68
2018-11-02T01:40:43.097Z,1010.67
2018-11-02T01:41:53.187Z,1010.73
2018-11-02T01:43:03.176Z,1010.72
2018-11-02T01:44:12.634Z,1010.74
2018-11-02T01:45:22.331Z,1010.73
2018-11-02T01:46:32.039Z,1010.72
2018-11-02T01:47:41.757Z,1010.73
2018-11-02T01:48:51.214Z,1010.72
2018-11-02T01:50:00.940Z,1010.7
2018-11-02T01:51:10.655Z,1010.63
2018-11-02T01:52:20.626Z,1010.6
2018-11-02T01:53:30.586Z,1010.57
2018-11-02T01:54:40.294Z,1010.65
2018-11-02T01:55:50.266Z,1010.69
2018-11-02T01:57:00.239Z,1010.65
2018-11-02T01:58:10.005Z,1010.72
2018-11-02T01:59:20.092Z,1010.71
2018-11-02T02:00:29.780Z,1010.73
2018-11-02T02:01:39.484Z,1010.72
2018-11-02T02:02:49.602Z,1010.67
2018-11-02T02:03:59.484Z,1010.71
2018-11-02T02:05:09.045Z,1010.73
2018-11-02T02:06:19.528Z,1010.78
2018-11-02T02:07:29.492Z,1010.8
2018-11-02T02:08:39.197Z,1010.81
2018-11-02T02:09:48.917Z,1010.77
2018-11-02T02:10:58.635Z,1010.78
2018-11-02T02:12:08.611Z,1010.85
2018-11-02T02:13:18.667Z,1010.82
2018-11-02T02:14:29.135Z,1010.82
2018-11-02T02:15:39.109Z,1010.76
2018-11-02T02:16:48.825Z,1010.79
2018-11-02T02:17:58.876Z,1010.79
2018-11-02T02:19:08.334Z,1010.79
2018-11-02T02:20:18.049Z,1010.84
2018-11-02T02:21:27.770Z,1010.86
2018-11-02T02:22:37.547Z,1010.88
2018-11-02T02:23:47.290Z,1010.88
2018-11-02T02:24:57.497Z,1010.95
2018-11-02T02:26:07.647Z,1010.92
2018-11-02T02:27:17.648Z,1010.93
2018-11-02T02:28:27.390Z,1010.88
2018-11-02T02:29:36.826Z,1010.9
2018-11-02T02:30:46.534Z,1010.95
2018-11-02T02:31:56.546Z,1010.91
2018-11-02T02:33:06.519Z,1010.89
2018-11-02T02:34:16.516Z,1010.89
2018-11-02T02:35:25.969Z,1010.93
2018-11-02T02:36:35.771Z,1010.92
2018-11-02T02:37:45.221Z,1011.01
2018-11-02T02:38:54.940Z,1010.98
2018-11-02T02:40:04.932Z,1011.02
2018-11-02T02:41:14.645Z,1011.06
2018-11-02T02:42:24.622Z,1011.04
2018-11-02T02:43:34.348Z,1011.11
2018-11-02T02:44:43.801Z,1011.1
2018-11-02T02:45:53.499Z,1011.21
2018-11-02T02:47:02.715Z,1011.25
2018-11-02T02:48:12.168Z,1011.24
2018-11-02T02:49:21.864Z,1011.27
2018-11-02T02:50:32.058Z,1011.25
2018-11-02T02:51:42.164Z,1011.23
2018-11-02T02:52:52.459Z,1011.29
2018-11-02T02:54:01.907Z,1011.24
2018-11-02T02:55:11.359Z,1011.29
2018-11-02T02:56:21.453Z,1011.32
2018-11-02T02:57:31.206Z,1011.32
2018-11-02T02:58:41.202Z,1011.28
2018-11-02T02:59:50.903Z,1011.23
2018-11-02T03:01:00.917Z,1011.29
2018-11-02T03:02:10.372Z,1011.28
2018-11-02T03:03:20.106Z,1011.29
2018-11-02T03:04:29.818Z,1011.29
2018-11-02T03:05:39.794Z,1011.32
2018-11-02T03:06:49.501Z,1011.31
2018-11-02T03:07:59.486Z,1011.35
2018-11-02T03:09:09.201Z,1011.33
2018-11-02T03:10:18.930Z,1011.32
2018-11-02T03:11:29.224Z,1011.39
2018-11-02T03:12:39.810Z,1011.42
2018-11-02T03:13:49.575Z,1011.38
2018-11-02T03:14:59.445Z,1011.36
2018-11-02T03:16:09.669Z,1011.31
2018-11-02T03:17:19.661Z,1011.28
2018-11-02T03:18:29.137Z,1011.28
2018-11-02T03:19:38.917Z,1011.28
2018-11-02T03:20:48.667Z,1011.34
2018-11-02T03:21:58.645Z,1011.31
2018-11-02T03:23:08.624Z,1011.38
2018-11-02T03:24:18.338Z,1011.43
2018-11-02T03:25:28.330Z,1011.41
2018-11-02T03:26:38.082Z,1011.41
2018-11-02T03:27:47.802Z,1011.42
2018-11-02T03:28:57.524Z,1011.47
2018-11-02T03:30:07.261Z,1011.46
2018-11-02T03:31:17.252Z,1011.45
2018-11-02T03:32:27.324Z,1011.46
2018-11-02T03:33:37.297Z,1011.47
2018-11-02T03:34:47.044Z,1011.41
2018-11-02T03:35:57.027Z,1011.4
2018-11-02T03:37:07.078Z,1011.4
2018-11-02T03:38:17.367Z,1011.38
2018-11-02T03:39:27.452Z,1011.38
2018-11-02T03:40:37.498Z,1011.39
2018-11-02T03:41:46.886Z,1011.44
2018-11-02T03:42:56.601Z,1011.39
2018-11-02T03:44:06.052Z,1011.5
2018-11-02T03:45:15.773Z,1011.46
2018-11-02T03:46:25.491Z,1011.47
2018-11-02T03:47:35.478Z,1011.45
2018-11-02T03:48:45.464Z,1011.45
2018-11-02T03:49:55.186Z,1011.52
2018-11-02T03:51:05.019Z,1011.57
2018-11-02T03:52:14.840Z,1011.56
2018-11-02T03:53:24.823Z,1011.57
2018-11-02T03:54:34.312Z,1011.62
2018-11-02T03:55:44.424Z,1011.62
2018-11-02T03:56:54.651Z,1011.63
2018-11-02T03:58:04.712Z,1011.66
2018-11-02T03:59:14.205Z,1011.68
2018-11-02T04:00:24.471Z,1011.69
2018-11-02T04:01:36.861Z,1011.63
2018-11-02T04:02:47.352Z,1011.67
2018-11-02T04:03:57.084Z,1011.65
2018-11-02T04:05:06.786Z,1011.7
2018-11-02T04:06:16.254Z,1011.68
2018-11-02T04:07:26.014Z,1011.65
2018-11-02T04:08:36.000Z,1011.71
2018-11-02T04:09:46.298Z,1011.63
2018-11-02T04:10:56.085Z,1011.67
2018-11-02T04:12:06.069Z,1011.62
2018-11-02T04:13:16.047Z,1011.61
2018-11-02T04:14:25.493Z,1011.7
2018-11-02T04:15:35.460Z,1011.77
2018-11-02T04:16:45.205Z,1011.79
2018-11-02T04:17:54.651Z,1011.78
2018-11-02T04:19:04.651Z,1011.76
2018-11-02T04:20:14.354Z,1011.79
2018-11-02T04:21:24.348Z,1011.81
2018-11-02T04:22:34.251Z,1011.81
2018-11-02T04:23:44.412Z,1011.81
2018-11-02T04:24:53.872Z,1011.79
2018-11-02T04:26:03.839Z,1011.82
2018-11-02T04:27:13.805Z,1011.87
2018-11-02T04:28:23.781Z,1011.87
2018-11-02T04:29:32.966Z,1011.92
2018-11-02T04:30:42.726Z,1011.93
2018-11-02T04:31:53.046Z,1011.91
2018-11-02T04:33:02.515Z,1011.9
2018-11-02T04:34:12.528Z,1011.92
2018-11-02T04:35:22.217Z,1011.91
2018-11-02T04:36:31.957Z,1011.93
2018-11-02T04:37:41.671Z,1011.94
2018-11-02T04:38:51.379Z,1011.95
2018-11-02T04:40:01.082Z,1011.96
2018-11-02T04:41:11.071Z,1012
2018-11-02T04:42:20.505Z,1011.96
2018-11-02T04:43:29.952Z,1011.97
2018-11-02T04:44:39.405Z,1012
2018-11-02T04:45:49.680Z,1012.03
2018-11-02T04:46:59.939Z,1012.13
2018-11-02T04:48:09.948Z,1012.1
2018-11-02T04:49:19.799Z,1012.13
2018-11-02T04:50:29.520Z,1012.15
2018-11-02T04:51:38.981Z,1012.11
2018-11-02T04:52:48.976Z,1012.12
2018-11-02T04:53:58.974Z,1012.09
2018-11-02T04:55:08.970Z,1012.09
2018-11-02T04:56:18.936Z,1012.08
2018-11-02T04:57:28.907Z,1012.08
2018-11-02T04:58:38.904Z,1012.11
2018-11-02T04:59:48.358Z,1012.19
2018-11-02T05:00:58.058Z,1012.23
2018-11-02T05:02:08.064Z,1012.26
2018-11-02T05:03:17.774Z,1012.34
2018-11-02T05:04:27.060Z,1012.34
2018-11-02T05:05:37.052Z,1012.33
2018-11-02T05:06:46.759Z,1012.35
2018-11-02T05:07:56.848Z,1012.33
2018-11-02T05:09:08.414Z,1012.32
2018-11-02T05:10:18.788Z,1012.31
2018-11-02T05:11:29.394Z,1012.33
2018-11-02T05:12:39.086Z,1012.3
2018-11-02T05:13:48.594Z,1012.32
2018-11-02T05:14:57.783Z,1012.3
2018-11-02T05:16:07.213Z,1012.27
2018-11-02T05:17:16.674Z,1012.26
2018-11-02T05:18:26.680Z,1012.32
2018-11-02T05:19:36.148Z,1012.32
2018-11-02T05:20:46.211Z,1012.37
2018-11-02T05:21:55.922Z,1012.41
2018-11-02T05:23:05.932Z,1012.45
2018-11-02T05:24:15.641Z,1012.46
2018-11-02T05:25:25.582Z,1012.52
2018-11-02T05:26:35.567Z,1012.52
2018-11-02T05:27:45.556Z,1012.55
2018-11-02T05:28:55.281Z,1012.53
2018-11-02T05:30:05.026Z,1012.51
2018-11-02T05:31:15.040Z,1012.51
2018-11-02T05:32:25.323Z,1012.52
2018-11-02T05:33:35.556Z,1012.47
2018-11-02T05:34:45.979Z,1012.49
2018-11-02T05:35:55.918Z,1012.52
2018-11-02T05:37:05.944Z,1012.54
2018-11-02T05:38:15.674Z,1012.61
2018-11-02T05:39:25.689Z,1012.65
2018-11-02T05:40:35.113Z,1012.68
2018-11-02T05:41:45.095Z,1012.69
2018-11-02T05:42:54.810Z,1012.75
2018-11-02T05:44:03.986Z,1012.74
2018-11-02T05:45:13.734Z,1012.78
2018-11-02T05:46:23.435Z,1012.79
2018-11-02T05:47:32.881Z,1012.85
2018-11-02T05:48:42.087Z,1012.85
2018-11-02T05:49:51.537Z,1012.84
2018-11-02T05:51:01.538Z,1012.81
2018-11-02T05:52:11.254Z,1012.84
2018-11-02T05:53:20.699Z,1012.82
2018-11-02T05:54:29.929Z,1012.85
2018-11-02T05:55:40.155Z,1012.84
2018-11-02T05:56:49.636Z,1012.86
2018-11-02T05:57:59.228Z,1012.85
2018-11-02T05:59:09.037Z,1012.9
2018-11-02T06:00:18.722Z,1012.91
2018-11-02T06:01:28.546Z,1012.91
2018-11-02T06:02:38.676Z,1012.92
2018-11-02T06:03:48.677Z,1012.95
2018-11-02T06:04:58.709Z,1013.01
2018-11-02T06:06:08.413Z,1013.02
2018-11-02T06:07:18.410Z,1013.06
2018-11-02T06:08:28.153Z,1013.01
2018-11-02T06:09:38.116Z,1013.06
2018-11-02T06:10:47.616Z,1013.05
2018-11-02T06:11:57.632Z,1012.99
2018-11-02T06:13:07.075Z,1012.98
2018-11-02T06:14:17.066Z,1012.97
2018-11-02T06:15:26.500Z,1012.97
2018-11-02T06:16:35.975Z,1013.04
2018-11-02T06:17:46.141Z,1012.97
2018-11-02T06:18:55.894Z,1012.98
2018-11-02T06:20:05.931Z,1013.07
2018-11-02T06:21:15.610Z,1013.11
2018-11-02T06:22:25.685Z,1013.12
2018-11-02T06:23:35.415Z,1013.19
2018-11-02T06:24:44.876Z,1013.25
2018-11-02T06:25:54.628Z,1013.24
2018-11-02T06:27:04.348Z,1013.29
2018-11-02T06:28:14.382Z,1013.29
2018-11-02T06:29:24.352Z,1013.3
2018-11-02T06:30:34.150Z,1013.32
2018-11-02T06:31:44.335Z,1013.36
2018-11-02T06:32:54.313Z,1013.4
2018-11-02T06:34:04.043Z,1013.42
2018-11-02T06:35:14.034Z,1013.45
2018-11-02T06:36:23.491Z,1013.5
2018-11-02T06:37:33.195Z,1013.59
2018-11-02T06:38:43.018Z,1013.62
2018-11-02T06:39:53.139Z,1013.63
2018-11-02T06:41:03.196Z,1013.58
2018-11-02T06:42:12.676Z,1013.57
2018-11-02T06:43:23.002Z,1013.57
2018-11-02T06:44:32.937Z,1013.7
2018-11-02T06:45:42.548Z,1013.63
2018-11-02T06:46:52.250Z,1013.69
2018-11-02T06:48:01.967Z,1013.66
2018-11-02T06:49:11.680Z,1013.69
2018-11-02T06:50:21.687Z,1013.74
2018-11-02T06:51:31.175Z,1013.82
2018-11-02T06:52:40.361Z,1013.84
2018-11-02T06:53:50.072Z,1013.88
2018-11-02T06:54:59.260Z,1013.89
2018-11-02T06:56:09.295Z,1013.91
2018-11-02T06:57:19.259Z,1013.99
2018-11-02T06:58:29.246Z,1014.01
2018-11-02T06:59:39.174Z,1014.01
2018-11-02T07:00:50.529Z,1014.04
2018-11-02T07:02:00.514Z,1014.06
2018-11-02T07:03:10.487Z,1013.98
2018-11-02T07:04:20.260Z,1013.96
2018-11-02T07:05:30.318Z,1014.02
2018-11-02T07:06:40.668Z,1014.05
2018-11-02T07:07:50.598Z,1014.03
2018-11-02T07:09:00.964Z,1014
2018-11-02T07:10:10.434Z,1013.97
2018-11-02T07:11:20.172Z,1014
2018-11-02T07:12:29.925Z,1014
2018-11-02T07:13:39.377Z,1014.05
2018-11-02T07:14:49.135Z,1014.09
2018-11-02T07:15:59.107Z,1014.14
2018-11-02T07:17:08.825Z,1014.12
2018-11-02T07:18:18.269Z,1014.16
2018-11-02T07:19:28.016Z,1014.11
2018-11-02T07:20:37.735Z,1014.13
2018-11-02T07:21:47.546Z,1014.13
2018-11-02T07:22:57.256Z,1014.13
2018-11-02T07:24:06.735Z,1014.11
2018-11-02T07:25:16.885Z,1014.16
2018-11-02T07:26:27.300Z,1014.18
2018-11-02T07:27:37.462Z,1014.19
2018-11-02T07:28:47.853Z,1014.27
2018-11-02T07:29:58.205Z,1014.28
2018-11-02T07:31:08.169Z,1014.22
2018-11-02T07:32:17.635Z,1014.25
2018-11-02T07:33:27.376Z,1014.21
2018-11-02T07:34:37.122Z,1014.24
2018-11-02T07:35:46.840Z,1014.28
2018-11-02T07:36:56.297Z,1014.28
2018-11-02T07:38:06.333Z,1014.34
2018-11-02T07:39:16.083Z,1014.43
2018-11-02T07:40:26.083Z,1014.47
2018-11-02T07:41:35.533Z,1014.53
2018-11-02T07:42:44.983Z,1014.54
2018-11-02T07:43:54.980Z,1014.54
2018-11-02T07:45:04.719Z,1014.53
2018-11-02T07:46:14.445Z,1014.57
2018-11-02T07:47:24.514Z,1014.6
2018-11-02T07:48:35.161Z,1014.66
2018-11-02T07:49:44.727Z,1014.67
2018-11-02T07:50:54.550Z,1014.71
2018-11-02T07:52:05.134Z,1014.79
2018-11-02T07:53:14.960Z,1014.74
2018-11-02T07:54:24.432Z,1014.89
2018-11-02T07:55:34.192Z,1014.87
2018-11-02T07:56:44.275Z,1014.95
2018-11-02T07:57:54.286Z,1014.93
2018-11-02T07:59:03.985Z,1014.94
2018-11-02T08:00:13.776Z,1014.91
2018-11-02T08:01:23.572Z,1014.91
2018-11-02T08:02:33.296Z,1014.93
2018-11-02T08:03:43.063Z,1014.96
2018-11-02T08:04:53.118Z,1014.98
2018-11-02T08:06:03.139Z,1014.97
2018-11-02T08:07:12.617Z,1015
2018-11-02T08:08:22.333Z,1014.94
2018-11-02T08:09:32.299Z,1015.01
2018-11-02T08:10:42.030Z,1015.05
2018-11-02T08:11:52.243Z,1015.07
2018-11-02T08:13:02.513Z,1015.06
2018-11-02T08:14:12.474Z,1015.04
2018-11-02T08:15:22.334Z,1015.05
2018-11-02T08:16:32.272Z,1015.05
2018-11-02T08:17:42.332Z,1015.07
2018-11-02T08:18:52.944Z,1015.16
2018-11-02T08:20:03.429Z,1015.06
2018-11-02T08:21:13.125Z,1015.11
2018-11-02T08:22:23.093Z,1015.14
2018-11-02T08:23:32.787Z,1015.15
2018-11-02T08:24:42.588Z,1015.11
2018-11-02T08:25:52.558Z,1015.15
2018-11-02T08:27:02.510Z,1015.15
2018-11-02T08:28:11.999Z,1015.14
2018-11-02T08:29:21.938Z,1015.12
2018-11-02T08:30:31.876Z,1015.19
2018-11-02T08:31:41.844Z,1015.2
2018-11-02T08:32:51.314Z,1015.21
2018-11-02T08:34:01.012Z,1015.29
2018-11-02T08:35:10.432Z,1015.24
2018-11-02T08:36:19.865Z,1015.25
2018-11-02T08:37:29.836Z,1015.27
2018-11-02T08:38:39.527Z,1015.25
2018-11-02T08:39:48.964Z,1015.23
2018-11-02T08:40:58.673Z,1015.29
2018-11-02T08:42:08.358Z,1015.36
2018-11-02T08:43:18.347Z,1015.34
2018-11-02T08:44:28.317Z,1015.39
2018-11-02T08:45:38.021Z,1015.38
2018-11-02T08:46:47.766Z,1015.43
2018-11-02T08:47:57.742Z,1015.38
2018-11-02T08:49:07.701Z,1015.45
2018-11-02T08:50:17.140Z,1015.41
2018-11-02T08:51:27.098Z,1015.44
2018-11-02T08:52:37.091Z,1015.43
2018-11-02T08:53:46.784Z,1015.44
2018-11-02T08:54:56.478Z,1015.42
2018-11-02T08:56:06.197Z,1015.44
2018-11-02T08:57:15.892Z,1015.42
2018-11-02T08:58:25.837Z,1015.53
2018-11-02T08:59:37.667Z,1015.55
2018-11-02T09:00:48.366Z,1015.63
2018-11-02T09:02:10.791Z,1015.48
2018-11-02T09:03:20.847Z,1015.48
2018-11-02T09:04:30.544Z,1015.5
2018-11-02T09:05:40.553Z,1015.49
2018-11-02T09:06:50.491Z,1015.42
2018-11-02T09:07:59.929Z,1015.5
2018-11-02T09:09:09.628Z,1015.52
2018-11-02T09:10:19.601Z,1015.47
2018-11-02T09:11:29.053Z,1015.48
2018-11-02T09:12:38.747Z,1015.51
2018-11-02T09:13:48.856Z,1015.56
2018-11-02T09:14:58.563Z,1015.6
2018-11-02T09:16:08.249Z,1015.62
2018-11-02T09:17:17.967Z,1015.67
2018-11-02T09:18:27.896Z,1015.61
2018-11-02T09:19:38.089Z,1015.66
2018-11-02T09:20:47.783Z,1015.69
2018-11-02T09:21:57.487Z,1015.78
2018-11-02T09:23:07.200Z,1015.61
2018-11-02T09:24:17.214Z,1015.72
2018-11-02T09:25:27.183Z,1015.75
2018-11-02T09:26:37.142Z,1015.64
2018-11-02T09:27:47.245Z,1015.83
2018-11-02T09:28:57.255Z,1015.91
2018-11-02T09:30:06.473Z,1015.88
2018-11-02T09:31:16.433Z,1015.8
2018-11-02T09:32:26.397Z,1015.93
2018-11-02T09:33:36.345Z,1015.97
2018-11-02T09:34:45.810Z,1015.96
2018-11-02T09:35:55.792Z,1016.02
2018-11-02T09:37:05.553Z,1016.13
2018-11-02T09:38:15.533Z,1016.05
2018-11-02T09:39:25.288Z,1016.12
2018-11-02T09:40:35.471Z,1016.2
2018-11-02T09:41:45.327Z,1016.23
2018-11-02T09:42:55.074Z,1016.12
2018-11-02T09:44:04.824Z,1016.28
2018-11-02T09:45:14.573Z,1016.29
2018-11-02T09:46:24.846Z,1016.23
2018-11-02T09:47:35.356Z,1016.24
2018-11-02T09:48:45.322Z,1016.18
2018-11-02T09:49:54.758Z,1016.14
2018-11-02T09:51:03.953Z,1016.12
2018-11-02T09:52:13.794Z,1016.1
2018-11-02T09:53:23.556Z,1016.06
2018-11-02T09:54:33.554Z,1016.08
2018-11-02T09:55:43.545Z,1016.05
2018-11-02T09:56:53.528Z,1016.17
2018-11-02T09:58:03.301Z,1016.04
2018-11-02T09:59:13.061Z,1015.92
2018-11-02T10:00:22.780Z,1015.9
2018-11-02T10:01:31.982Z,1015.94
2018-11-02T10:02:41.989Z,1015.86
2018-11-02T10:03:51.967Z,1015.83
2018-11-02T10:05:01.956Z,1015.9
2018-11-02T10:06:11.679Z,1015.92
2018-11-02T10:07:21.452Z,1015.9
2018-11-02T10:08:31.342Z,1015.91
2018-11-02T10:09:40.852Z,1015.94
2018-11-02T10:10:51.007Z,1015.84
2018-11-02T10:12:01.078Z,1015.92
2018-11-02T10:13:11.380Z,1015.94
2018-11-02T10:14:21.820Z,1016.03
2018-11-02T10:15:31.539Z,1015.97
2018-11-02T10:16:41.008Z,1016.17
2018-11-02T10:17:50.991Z,1015.94
2018-11-02T10:19:00.760Z,1015.98
2018-11-02T10:20:10.495Z,1016.04
2018-11-02T10:21:20.227Z,1015.95
2018-11-02T10:22:29.984Z,1016.01
2018-11-02T10:23:40.115Z,1016.08
2018-11-02T10:24:50.370Z,1016.13
2018-11-02T10:26:00.412Z,1016.07
2018-11-02T10:27:10.427Z,1015.99
2018-11-02T10:28:20.271Z,1015.93
2018-11-02T10:29:30.299Z,1015.96
2018-11-02T10:30:40.047Z,1016.02
2018-11-02T10:31:49.791Z,1016.01
2018-11-02T10:32:59.809Z,1015.98
2018-11-02T10:34:09.540Z,1015.96
2018-11-02T10:35:19.349Z,1016.04
2018-11-02T10:36:29.695Z,1016.05
2018-11-02T10:37:39.332Z,1016.05
2018-11-02T10:38:49.138Z,1016.07
2018-11-02T10:39:59.234Z,1016.06
2018-11-02T10:41:08.950Z,1016.14
2018-11-02T10:42:18.956Z,1016.06
2018-11-02T10:43:28.973Z,1016.12
2018-11-02T10:44:38.754Z,1016.22
2018-11-02T10:45:49.299Z,1016.15
2018-11-02T10:46:59.211Z,1016.14
2018-11-02T10:48:09.231Z,1016.1
2018-11-02T10:49:19.372Z,1016.29
2018-11-02T10:50:30.069Z,1016.32
2018-11-02T10:51:39.819Z,1016.29
2018-11-02T10:52:49.830Z,1016.26
2018-11-02T10:53:59.029Z,1016.27
2018-11-02T10:55:08.765Z,1016.25
2018-11-02T10:56:18.778Z,1016.27
2018-11-02T10:57:28.457Z,1016.28
2018-11-02T10:58:38.687Z,1016.3
2018-11-02T10:59:48.948Z,1016.26
2018-11-02T11:00:59.783Z,1016.31
2018-11-02T11:02:10.411Z,1016.27
2018-11-02T11:03:19.894Z,1016.28
2018-11-02T11:04:29.899Z,1016.36
2018-11-02T11:05:39.916Z,1016.4
2018-11-02T11:06:49.665Z,1016.49
2018-11-02T11:07:59.121Z,1016.51
2018-11-02T11:09:09.131Z,1016.57
2018-11-02T11:10:18.883Z,1016.57
2018-11-02T11:11:28.460Z,1016.56
2018-11-02T11:12:38.916Z,1016.59
2018-11-02T11:13:50.718Z,1016.55
2018-11-02T11:15:00.779Z,1016.34
2018-11-02T11:16:10.509Z,1016.43
2018-11-02T11:17:20.245Z,1016.42
2018-11-02T11:18:29.983Z,1016.55
2018-11-02T11:19:39.170Z,1016.51
2018-11-02T11:20:49.170Z,1016.53
2018-11-02T11:21:59.477Z,1016.6
2018-11-02T11:23:09.155Z,1016.59
2018-11-02T11:24:19.011Z,1016.58
2018-11-02T11:25:29.033Z,1016.66
2018-11-02T11:26:38.988Z,1016.58
2018-11-02T11:27:49.006Z,1016.59
2018-11-02T11:28:58.797Z,1016.49
2018-11-02T11:30:08.640Z,1016.52
2018-11-02T11:31:18.399Z,1016.54
2018-11-02T11:32:27.626Z,1016.52
2018-11-02T11:33:37.406Z,1016.61
2018-11-02T11:34:47.422Z,1016.6
2018-11-02T11:35:57.429Z,1016.65
2018-11-02T11:37:07.188Z,1016.65
2018-11-02T11:38:16.999Z,1016.62
2018-11-02T11:39:26.256Z,1016.67
2018-11-02T11:40:36.628Z,1016.68
2018-11-02T11:41:46.095Z,1016.68
2018-11-02T11:42:56.103Z,1016.63
2018-11-02T11:44:05.598Z,1016.6
2018-11-02T11:45:14.809Z,1016.6
2018-11-02T11:46:24.567Z,1016.57
2018-11-02T11:47:34.063Z,1016.52
2018-11-02T11:48:44.648Z,1016.57
2018-11-02T11:49:56.057Z,1016.62
2018-11-02T11:51:06.073Z,1016.63
2018-11-02T11:52:15.844Z,1016.83
2018-11-02T11:53:25.868Z,1016.7
2018-11-02T11:54:35.681Z,1016.74
2018-11-02T11:55:45.471Z,1016.74
2018-11-02T11:56:55.564Z,1016.74
2018-11-02T11:58:05.037Z,1016.73
2018-11-02T11:59:14.794Z,1016.78
2018-11-02T12:00:24.544Z,1016.86
2018-11-02T12:01:34.275Z,1016.86
2018-11-02T12:02:44.306Z,1016.93
2018-11-02T12:03:54.060Z,1016.83
2018-11-02T12:05:03.936Z,1016.81
2018-11-02T12:06:13.479Z,1016.76
2018-11-02T12:07:23.260Z,1016.85
2018-11-02T12:08:33.495Z,1016.75
2018-11-02T12:09:43.255Z,1016.76
2018-11-02T12:10:53.023Z,1016.75
2018-11-02T12:12:03.545Z,1016.73
2018-11-02T12:13:13.264Z,1016.73
2018-11-02T12:14:23.299Z,1016.76
2018-11-02T12:15:33.076Z,1016.82
2018-11-02T12:16:42.869Z,1016.79
2018-11-02T12:17:52.671Z,1016.86
2018-11-02T12:19:02.143Z,1016.76
2018-11-02T12:20:12.151Z,1016.88
2018-11-02T12:21:21.892Z,1016.93
2018-11-02T12:22:31.721Z,1016.86
2018-11-02T12:23:41.756Z,1016.8
2018-11-02T12:24:51.497Z,1016.81
2018-11-02T12:26:01.246Z,1016.89
2018-11-02T12:27:10.725Z,1016.88
2018-11-02T12:28:20.560Z,1016.82
2018-11-02T12:29:31.132Z,1016.98
2018-11-02T12:30:41.195Z,1016.93
2018-11-02T12:31:51.548Z,1016.96
2018-11-02T12:33:01.035Z,1016.92
2018-11-02T12:34:11.042Z,1016.86
2018-11-02T12:35:20.590Z,1016.77
2018-11-02T12:36:30.876Z,1016.77
2018-11-02T12:37:40.945Z,1016.71
2018-11-02T12:38:51.231Z,1016.79
2018-11-02T12:40:01.239Z,1016.79
2018-11-02T12:41:10.971Z,1016.73
2018-11-02T12:42:20.992Z,1016.88
2018-11-02T12:43:30.927Z,1016.79
2018-11-02T12:44:41.487Z,1016.82
2018-11-02T12:45:51.514Z,1016.85
2018-11-02T12:47:01.282Z,1016.88
2018-11-02T12:48:11.390Z,1016.86
2018-11-02T12:49:22.158Z,1016.92
2018-11-02T12:50:33.240Z,1016.92
2018-11-02T12:51:43.461Z,1016.9
2018-11-02T12:52:53.491Z,1016.91
2018-11-02T12:54:03.242Z,1016.91
2018-11-02T12:55:12.724Z,1016.93
2018-11-02T12:56:22.474Z,1016.98
2018-11-02T12:57:33.011Z,1016.95
2018-11-02T12:58:44.290Z,1016.94
2018-11-02T12:59:54.269Z,1017.03
2018-11-02T13:01:04.029Z,1017.06
2018-11-02T13:02:13.497Z,1017.04
2018-11-02T13:03:23.276Z,1017.14
2018-11-02T13:04:33.032Z,1017.12
2018-11-02T13:05:43.047Z,1017.14
2018-11-02T13:06:52.818Z,1017.18
2018-11-02T13:08:02.557Z,1017.21
2018-11-02T13:09:12.350Z,1017.13
2018-11-02T13:10:22.814Z,1017.19
2018-11-02T13:11:32.534Z,1017.11
2018-11-02T13:12:42.007Z,1017.11
2018-11-02T13:13:51.759Z,1017.13
2018-11-02T13:15:01.779Z,1017.06
2018-11-02T13:16:11.865Z,1017.14
2018-11-02T13:17:21.921Z,1017.15
2018-11-02T13:18:32.564Z,1017.17
2018-11-02T13:19:42.972Z,1017.1
2018-11-02T13:20:52.725Z,1017.14
2018-11-02T13:22:03.322Z,1017.15
2018-11-02T13:23:12.999Z,1017.14
2018-11-02T13:24:22.476Z,1017.22
2018-11-02T13:25:32.275Z,1017.24
2018-11-02T13:26:43.199Z,1017.17
2018-11-02T13:27:52.404Z,1017.16
2018-11-02T13:29:02.420Z,1017.13
2018-11-02T13:30:12.564Z,1017.15
2018-11-02T13:31:22.673Z,1017.21
2018-11-02T13:32:32.986Z,1017.19
2018-11-02T13:33:43.011Z,1017.3
2018-11-02T13:34:53.011Z,1017.34
2018-11-02T13:36:03.022Z,1017.41
2018-11-02T13:37:12.802Z,1017.39
2018-11-02T13:38:23.200Z,1017.43
2018-11-02T13:39:32.968Z,1017.39
2018-11-02T13:40:43.016Z,1017.31
2018-11-02T13:41:53.349Z,1017.45
2018-11-02T13:43:03.686Z,1017.4
2018-11-02T13:44:14.976Z,1017.44
2018-11-02T13:45:24.710Z,1017.49
2018-11-02T13:46:34.179Z,1017.54
2018-11-02T13:47:44.173Z,1017.54
2018-11-02T13:48:54.162Z,1017.6
2018-11-02T13:50:03.906Z,1017.58
2018-11-02T13:51:13.956Z,1017.57
2018-11-02T13:52:23.980Z,1017.58
2018-11-02T13:53:33.728Z,1017.62
2018-11-02T13:54:44.209Z,1017.55
2018-11-02T13:55:53.685Z,1017.51
2018-11-02T13:57:03.419Z,1017.49
2018-11-02T13:58:13.441Z,1017.48
2018-11-02T13:59:23.174Z,1017.48
2018-11-02T14:00:32.821Z,1017.5
2018-11-02T14:01:42.301Z,1017.5
2018-11-02T14:02:52.401Z,1017.38
2018-11-02T14:04:01.460Z,1017.37
2018-11-02T14:05:12.036Z,1017.54
2018-11-02T14:06:22.519Z,1017.4
2018-11-02T14:07:32.271Z,1017.37